createdAt,value
2023-01-01T00:00:22.684Z,18.57
2023-01-01T00:02:49.885Z,18.38
2023-01-01T00:05:17.159Z,18.47
2023-01-01T00:07:45.667Z,18.22
2023-01-01T00:10:12.887Z,18.36
2023-01-01T00:12:40.095Z,18.46
2023-01-01T00:15:08.246Z,18.32
2023-01-01T00:17:35.401Z,18.41
2023-01-01T00:20:02.499Z,18.32
2023-01-01T00:22:54.421Z,18.23
2023-01-01T00:25:18.431Z,18.23
2023-01-01T00:27:45.679Z,18.20
2023-01-01T00:30:14.023Z,18.20
2023-01-01T00:32:41.499Z,18.23
2023-01-01T00:35:10.375Z,18.22
2023-01-01T00:37:41.819Z,18.22
2023-01-01T00:40:12.769Z,18.09
2023-01-01T00:42:41.322Z,18.21
2023-01-01T00:45:10.811Z,18.27
2023-01-01T00:47:40.400Z,18.31
2023-01-01T00:50:08.221Z,18.28
2023-01-01T00:52:35.428Z,18.31
2023-01-01T00:55:02.525Z,18.31
2023-01-01T00:57:29.847Z,18.26
2023-01-01T00:59:58.480Z,18.21
2023-01-01T01:02:25.743Z,18.23
2023-01-01T01:04:53.059Z,18.29
2023-01-01T01:07:20.093Z,18.24
2023-01-01T01:09:47.263Z,18.23
2023-01-01T01:12:18.454Z,18.25
2023-01-01T01:14:46.421Z,18.22
2023-01-01T01:17:15.041Z,18.22
2023-01-01T01:19:42.286Z,18.23
2023-01-01T01:22:09.461Z,18.17
2023-01-01T01:24:36.623Z,18.21
2023-01-01T01:27:03.884Z,18.21
2023-01-01T01:29:31.005Z,18.19
2023-01-01T01:31:58.258Z,18.16
2023-01-01T01:34:28.351Z,18.09
2023-01-01T01:36:55.917Z,18.01
2023-01-01T01:39:23.220Z,17.89
2023-01-01T01:41:50.421Z,17.92
2023-01-01T01:45:02.215Z,17.92
2023-01-01T01:47:36.104Z,17.86
2023-01-01T01:50:11.723Z,17.84
2023-01-01T01:52:47.754Z,17.84
2023-01-01T01:55:15.061Z,17.83
2023-01-01T01:57:42.584Z,17.88
2023-01-01T02:00:11.893Z,17.86
2023-01-01T02:02:48.519Z,17.85
2023-01-01T02:05:20.559Z,17.81
2023-01-01T02:07:49.197Z,17.72
2023-01-01T02:10:16.320Z,17.72
2023-01-01T02:12:43.602Z,17.63
2023-01-01T02:15:11.553Z,17.63
2023-01-01T02:17:51.040Z,17.62
2023-01-01T02:20:37.515Z,17.62
2023-01-01T02:23:31.718Z,17.67
2023-01-01T02:26:26.937Z,17.67
2023-01-01T02:29:04.855Z,17.68
2023-01-01T02:31:38.099Z,17.70
2023-01-01T02:34:13.080Z,17.72
2023-01-01T02:36:46.702Z,17.75
2023-01-01T02:39:17.761Z,17.79
2023-01-01T02:41:50.561Z,17.78
2023-01-01T02:44:25.165Z,17.81
2023-01-01T02:46:52.479Z,17.84
2023-01-01T02:49:19.655Z,17.85
2023-01-01T02:52:01.723Z,18.39
2023-01-01T02:54:37.915Z,18.54
2023-01-01T02:57:15.757Z,18.62
2023-01-01T03:00:01.592Z,18.68
2023-01-01T03:02:43.973Z,18.73
2023-01-01T03:05:25.425Z,19.02
2023-01-01T03:08:08.703Z,19.21
2023-01-01T03:10:45.861Z,19.41
2023-01-01T03:13:24.397Z,19.66
2023-01-01T03:16:02.476Z,19.56
2023-01-01T03:18:36.975Z,19.64
2023-01-01T03:21:08.234Z,19.77
2023-01-01T03:23:46.054Z,19.85
2023-01-01T03:26:21.256Z,19.76
2023-01-01T03:28:55.275Z,19.78
2023-01-01T03:31:26.584Z,19.85
2023-01-01T03:34:02.435Z,19.85
2023-01-01T03:36:35.478Z,19.93
2023-01-01T03:39:10.954Z,19.91
2023-01-01T03:41:44.593Z,19.98
2023-01-01T03:44:20.547Z,19.80
2023-01-01T03:46:50.088Z,19.93
2023-01-01T03:49:18.999Z,19.87
2023-01-01T03:52:05.143Z,20.03
2023-01-01T03:54:45.358Z,19.92
2023-01-01T03:57:21.836Z,19.82
2023-01-01T03:59:58.714Z,19.77
2023-01-01T04:02:34.682Z,19.73
2023-01-01T04:05:04.824Z,19.83
2023-01-01T04:07:32.577Z,19.72
2023-01-01T04:10:02.751Z,19.88
2023-01-01T04:12:31.117Z,19.74
2023-01-01T04:14:58.195Z,19.77
2023-01-01T04:17:25.355Z,19.68
2023-01-01T04:19:55.324Z,19.75
2023-01-01T04:22:22.619Z,19.69
2023-01-01T04:24:49.759Z,19.63
2023-01-01T04:27:16.995Z,19.62
2023-01-01T04:29:44.171Z,19.61
2023-01-01T04:32:11.359Z,19.59
2023-01-01T04:34:38.556Z,19.59
2023-01-01T04:37:12.743Z,19.61
2023-01-01T04:39:41.773Z,19.71
2023-01-01T04:42:09.019Z,19.77
2023-01-01T04:44:36.197Z,19.64
2023-01-01T04:47:03.687Z,19.56
2023-01-01T04:49:30.821Z,19.57
2023-01-01T04:51:57.914Z,19.71
2023-01-01T04:54:26.503Z,19.68
2023-01-01T04:56:53.675Z,19.75
2023-01-01T04:59:20.877Z,19.72
2023-01-01T05:01:48.254Z,19.82
2023-01-01T05:04:16.955Z,19.76
2023-01-01T05:06:44.570Z,19.79
2023-01-01T05:09:12.860Z,19.43
2023-01-01T05:11:41.917Z,19.65
2023-01-01T05:14:09.116Z,19.75
2023-01-01T05:16:38.510Z,19.80
2023-01-01T05:19:07.785Z,19.58
2023-01-01T05:21:36.979Z,19.71
2023-01-01T05:24:06.919Z,19.78
2023-01-01T05:26:36.182Z,19.82
2023-01-01T05:29:11.761Z,19.73
2023-01-01T05:31:42.747Z,19.81
2023-01-01T05:34:10.038Z,19.78
2023-01-01T05:36:38.098Z,19.77
2023-01-01T05:39:05.937Z,19.73
2023-01-01T05:41:33.039Z,19.83
2023-01-01T05:44:02.587Z,19.80
2023-01-01T05:46:31.770Z,19.70
2023-01-01T05:48:59.041Z,19.56
2023-01-01T05:51:28.181Z,19.55
2023-01-01T05:53:56.478Z,19.61
2023-01-01T05:56:24.176Z,19.60
2023-01-01T05:58:51.661Z,19.59
2023-01-01T06:01:21.140Z,19.64
2023-01-01T06:03:50.811Z,19.47
2023-01-01T06:06:20.536Z,19.49
2023-01-01T06:08:51.793Z,19.38
2023-01-01T06:11:19.039Z,19.37
2023-01-01T06:13:47.047Z,19.41
2023-01-01T06:16:14.613Z,19.38
2023-01-01T06:18:42.040Z,19.36
2023-01-01T06:21:13.685Z,19.26
2023-01-01T06:23:41.995Z,19.02
2023-01-01T06:26:11.023Z,18.92
2023-01-01T06:28:38.592Z,19.13
2023-01-01T06:31:08.052Z,19.17
2023-01-01T06:33:35.356Z,19.12
2023-01-01T06:36:04.963Z,19.23
2023-01-01T06:38:33.955Z,19.19
2023-01-01T06:41:04.961Z,19.20
2023-01-01T06:43:34.087Z,19.07
2023-01-01T06:46:02.808Z,18.97
2023-01-01T06:48:30.926Z,18.85
2023-01-01T06:50:58.825Z,18.79
2023-01-01T06:53:27.316Z,18.92
2023-01-01T06:55:57.521Z,18.95
2023-01-01T06:58:24.815Z,18.94
2023-01-01T07:00:52.002Z,18.99
2023-01-01T07:03:19.245Z,18.96
2023-01-01T07:05:46.485Z,19.08
2023-01-01T07:08:13.639Z,19.17
2023-01-01T07:10:40.740Z,19.15
2023-01-01T07:13:09.371Z,19.24
2023-01-01T07:15:36.669Z,19.24
2023-01-01T07:18:04.094Z,19.32
2023-01-01T07:20:31.305Z,19.41
2023-01-01T07:22:58.458Z,19.28
2023-01-01T07:25:25.595Z,19.49
2023-01-01T07:27:52.676Z,19.33
2023-01-01T07:30:21.357Z,19.29
2023-01-01T07:32:54.958Z,19.33
2023-01-01T07:35:22.242Z,19.28
2023-01-01T07:37:49.436Z,19.31
2023-01-01T07:40:16.797Z,19.33
2023-01-01T07:42:43.984Z,19.25
2023-01-01T07:45:12.876Z,19.37
2023-01-01T07:47:41.656Z,19.41
2023-01-01T07:50:16.782Z,19.37
2023-01-01T07:52:43.916Z,19.48
2023-01-01T07:55:12.955Z,19.37
2023-01-01T07:57:40.236Z,19.49
2023-01-01T08:00:09.218Z,19.51
2023-01-01T08:02:36.456Z,19.44
2023-01-01T08:05:05.835Z,19.38
2023-01-01T08:07:33.096Z,19.46
2023-01-01T08:10:00.319Z,19.45
2023-01-01T08:12:27.436Z,19.36
2023-01-01T08:14:54.801Z,19.31
2023-01-01T08:17:21.917Z,19.30
2023-01-01T08:19:49.020Z,19.23
2023-01-01T08:22:17.616Z,19.19
2023-01-01T08:24:44.776Z,19.18
2023-01-01T08:27:14.281Z,19.29
2023-01-01T08:29:41.516Z,19.29
2023-01-01T08:32:08.938Z,19.30
2023-01-01T08:34:36.197Z,19.34
2023-01-01T08:37:03.739Z,19.26
2023-01-01T08:39:32.675Z,19.24
2023-01-01T08:41:59.837Z,19.27
2023-01-01T08:44:26.995Z,19.17
2023-01-01T08:46:54.305Z,19.16
2023-01-01T08:49:21.595Z,19.08
2023-01-01T08:51:48.720Z,19.18
2023-01-01T08:54:15.905Z,19.15
2023-01-01T08:56:44.415Z,19.16
2023-01-01T08:59:11.596Z,19.27
2023-01-01T09:01:38.848Z,19.29
2023-01-01T09:04:09.161Z,19.36
2023-01-01T09:06:40.774Z,19.34
2023-01-01T09:09:07.917Z,19.38
2023-01-01T09:11:35.113Z,19.41
2023-01-01T09:14:03.881Z,19.50
2023-01-01T09:16:31.187Z,19.76
2023-01-01T09:18:58.334Z,19.92
2023-01-01T09:21:25.523Z,19.91
2023-01-01T09:23:52.770Z,20.07
2023-01-01T09:26:19.840Z,20.34
2023-01-01T09:28:47.012Z,20.72
2023-01-01T09:31:15.626Z,21.00
2023-01-01T09:33:42.733Z,21.32
2023-01-01T09:36:15.075Z,21.56
2023-01-01T09:38:42.313Z,21.84
2023-01-01T09:41:23.839Z,22.08
2023-01-01T09:44:03.144Z,22.38
2023-01-01T09:46:32.909Z,22.74
2023-01-01T09:49:06.736Z,22.89
2023-01-01T09:51:42.894Z,22.95
2023-01-01T09:54:29.866Z,23.18
2023-01-01T09:57:01.128Z,23.31
2023-01-01T09:59:28.876Z,23.53
2023-01-01T10:02:10.874Z,23.72
2023-01-01T10:04:56.699Z,23.78
2023-01-01T10:07:35.701Z,23.77
2023-01-01T10:10:11.563Z,23.16
2023-01-01T10:12:51.675Z,23.54
2023-01-01T10:15:23.726Z,23.48
2023-01-01T10:17:58.973Z,23.93
2023-01-01T10:20:35.254Z,24.03
2023-01-01T10:23:12.555Z,24.10
2023-01-01T10:25:41.035Z,24.11
2023-01-01T10:28:19.595Z,24.23
2023-01-01T10:30:46.796Z,24.11
2023-01-01T10:33:15.353Z,24.25
2023-01-01T10:35:47.356Z,24.18
2023-01-01T10:38:24.135Z,24.24
2023-01-01T10:40:55.655Z,24.39
2023-01-01T10:43:22.876Z,24.38
2023-01-01T10:45:55.074Z,24.38
2023-01-01T10:48:26.569Z,24.34
2023-01-01T10:50:57.595Z,24.31
2023-01-01T10:53:29.137Z,24.35
2023-01-01T10:56:10.142Z,24.22
2023-01-01T10:58:43.677Z,24.24
2023-01-01T11:01:13.484Z,24.00
2023-01-01T11:03:58.956Z,23.87
2023-01-01T11:06:31.814Z,23.96
2023-01-01T11:09:01.452Z,23.87
2023-01-01T11:11:31.158Z,23.76
2023-01-01T11:14:01.409Z,22.41
2023-01-01T11:16:29.731Z,22.78
2023-01-01T11:19:07.882Z,22.46
2023-01-01T11:21:36.480Z,23.07
2023-01-01T11:24:21.763Z,23.10
2023-01-01T11:26:54.641Z,23.23
2023-01-01T11:29:27.784Z,23.41
2023-01-01T11:31:59.216Z,22.97
2023-01-01T11:34:32.482Z,22.99
2023-01-01T11:37:26.999Z,22.85
2023-01-01T11:39:58.796Z,22.39
2023-01-01T11:42:29.816Z,22.70
2023-01-01T11:45:00.708Z,22.32
2023-01-01T11:47:32.187Z,22.69
2023-01-01T11:50:06.518Z,23.07
2023-01-01T11:52:38.101Z,23.29
2023-01-01T11:55:16.282Z,23.38
2023-01-01T11:57:57.199Z,23.57
2023-01-01T12:00:24.748Z,23.30
2023-01-01T12:03:00.212Z,23.42
2023-01-01T12:05:44.511Z,23.48
2023-01-01T12:08:20.392Z,23.51
2023-01-01T12:10:55.219Z,23.46
2023-01-01T12:13:29.268Z,23.43
2023-01-01T12:16:07.271Z,23.63
2023-01-01T12:18:42.541Z,23.71
2023-01-01T12:21:20.261Z,23.60
2023-01-01T12:23:47.747Z,23.69
2023-01-01T12:26:22.518Z,23.49
2023-01-01T12:29:18.172Z,23.54
2023-01-01T12:31:56.227Z,23.45
2023-01-01T12:34:34.006Z,23.46
2023-01-01T12:37:13.550Z,23.37
2023-01-01T12:40:43.525Z,23.35
2023-01-01T12:43:16.753Z,23.42
2023-01-01T12:46:19.366Z,23.63
2023-01-01T12:49:11.723Z,23.48
2023-01-01T12:51:51.615Z,23.53
2023-01-01T12:54:53.364Z,23.26
2023-01-01T12:57:30.360Z,23.15
2023-01-01T13:00:02.005Z,23.32
2023-01-01T13:02:34.930Z,23.34
2023-01-01T13:05:13.555Z,23.24
2023-01-01T13:07:47.256Z,23.21
2023-01-01T13:10:26.294Z,23.28
2023-01-01T13:12:56.031Z,22.63
2023-01-01T13:15:46.295Z,22.95
2023-01-01T13:18:33.246Z,23.13
2023-01-01T13:21:07.358Z,23.01
2023-01-01T13:23:46.055Z,23.07
2023-01-01T13:26:38.119Z,23.17
2023-01-01T13:29:31.355Z,23.24
2023-01-01T13:32:15.842Z,22.72
2023-01-01T13:35:15.518Z,22.96
2023-01-01T13:37:47.243Z,22.74
2023-01-01T13:40:52.276Z,22.78
2023-01-01T13:43:27.353Z,22.57
2023-01-01T13:46:12.925Z,22.78
2023-01-01T13:49:01.787Z,21.74
2023-01-01T13:52:11.336Z,22.04
2023-01-01T13:55:32.935Z,21.91
2023-01-01T13:58:32.376Z,21.62
2023-01-01T14:01:35.060Z,22.02
2023-01-01T14:04:14.154Z,21.99
2023-01-01T14:06:50.302Z,21.83
2023-01-01T14:09:21.134Z,21.80
2023-01-01T14:11:48.315Z,21.90
2023-01-01T14:14:28.016Z,21.75
2023-01-01T14:16:58.918Z,21.40
2023-01-01T14:19:29.063Z,22.07
2023-01-01T14:21:57.336Z,22.31
2023-01-01T14:24:26.975Z,22.30
2023-01-01T14:26:55.837Z,22.09
2023-01-01T14:29:29.637Z,22.10
2023-01-01T14:31:59.526Z,21.91
2023-01-01T14:34:29.290Z,21.78
2023-01-01T14:36:58.937Z,21.82
2023-01-01T14:39:28.382Z,21.91
2023-01-01T14:42:01.056Z,21.75
2023-01-01T14:44:36.253Z,21.76
2023-01-01T14:47:04.976Z,21.76
2023-01-01T14:49:37.537Z,21.29
2023-01-01T14:52:16.094Z,21.59
2023-01-01T14:54:46.477Z,21.06
2023-01-01T14:57:31.538Z,21.37
2023-01-01T15:00:00.290Z,21.45
2023-01-01T15:02:30.119Z,21.14
2023-01-01T15:04:58.418Z,21.44
2023-01-01T15:07:27.795Z,21.04
2023-01-01T15:09:57.180Z,19.99
2023-01-01T15:12:24.636Z,20.67
2023-01-01T15:14:53.881Z,19.89
2023-01-01T15:17:24.998Z,20.40
2023-01-01T15:20:04.626Z,20.12
2023-01-01T15:22:34.725Z,19.86
2023-01-01T15:25:03.435Z,20.60
2023-01-01T15:27:33.670Z,20.94
2023-01-01T15:30:02.377Z,21.00
2023-01-01T15:32:34.954Z,21.07
2023-01-01T15:35:06.272Z,21.08
2023-01-01T15:37:37.439Z,21.16
2023-01-01T15:40:34.357Z,21.19
2023-01-01T15:43:21.678Z,20.77
2023-01-01T15:45:58.057Z,20.95
2023-01-01T15:48:46.206Z,20.81
2023-01-01T15:51:17.469Z,19.94
2023-01-01T15:53:54.882Z,20.47
2023-01-01T15:56:26.061Z,20.59
2023-01-01T15:59:02.445Z,20.49
2023-01-01T16:01:38.977Z,20.80
2023-01-01T16:04:15.474Z,20.81
2023-01-01T16:06:45.529Z,19.87
2023-01-01T16:09:13.166Z,20.46
2023-01-01T16:11:40.320Z,20.66
2023-01-01T16:14:07.731Z,20.70
2023-01-01T16:16:37.045Z,20.63
2023-01-01T16:19:04.976Z,20.66
2023-01-01T16:21:34.213Z,20.61
2023-01-01T16:24:01.820Z,20.65
2023-01-01T16:26:28.997Z,20.44
2023-01-01T16:28:56.274Z,20.37
2023-01-01T16:31:26.760Z,20.47
2023-01-01T16:33:56.307Z,20.51
2023-01-01T16:36:24.235Z,20.49
2023-01-01T16:38:53.208Z,20.51
2023-01-01T16:41:20.598Z,20.59
2023-01-01T16:43:48.501Z,20.41
2023-01-01T16:46:15.884Z,20.32
2023-01-01T16:48:43.741Z,20.16
2023-01-01T16:51:18.823Z,20.28
2023-01-01T16:53:46.187Z,19.63
2023-01-01T16:56:16.325Z,19.94
2023-01-01T16:58:53.227Z,20.21
2023-01-01T17:01:25.473Z,20.32
2023-01-01T17:03:52.811Z,20.35
2023-01-01T17:06:20.418Z,20.37
2023-01-01T17:08:47.817Z,20.33
2023-01-01T17:11:18.501Z,20.37
2023-01-01T17:13:48.188Z,20.37
2023-01-01T17:16:23.240Z,20.34
2023-01-01T17:21:43.076Z,20.41
2023-01-01T17:24:10.881Z,20.39
2023-01-01T17:26:39.641Z,20.01
2023-01-01T17:29:06.837Z,20.35
2023-01-01T17:31:34.227Z,19.83
2023-01-01T17:34:02.121Z,20.18
2023-01-01T17:36:29.198Z,20.27
2023-01-01T17:38:57.135Z,20.10
2023-01-01T17:41:24.317Z,19.97
2023-01-01T17:43:53.120Z,19.78
2023-01-01T17:46:23.068Z,20.04
2023-01-01T17:48:51.103Z,20.13
2023-01-01T17:51:19.381Z,20.20
2023-01-01T17:53:47.226Z,20.20
2023-01-01T17:56:16.616Z,20.19
2023-01-01T17:58:45.727Z,20.15
2023-01-01T18:01:29.169Z,20.15
2023-01-01T18:03:58.633Z,20.18
2023-01-01T18:06:26.376Z,20.12
2023-01-01T18:08:57.761Z,20.08
2023-01-01T18:11:27.336Z,20.11
2023-01-01T18:13:54.636Z,20.04
2023-01-01T18:16:24.073Z,20.06
2023-01-01T18:18:51.337Z,19.92
2023-01-01T18:21:20.963Z,19.95
2023-01-01T18:23:50.654Z,19.96
2023-01-01T18:26:18.903Z,19.82
2023-01-01T18:28:50.514Z,19.86
2023-01-01T18:31:17.737Z,19.85
2023-01-01T18:33:47.557Z,19.84
2023-01-01T18:36:18.797Z,19.89
2023-01-01T18:38:56.505Z,19.88
2023-01-01T18:41:46.601Z,19.82
2023-01-01T18:44:19.670Z,19.84
2023-01-01T18:46:53.900Z,19.80
2023-01-01T18:49:24.321Z,19.68
2023-01-01T18:51:55.974Z,19.73
2023-01-01T18:54:24.343Z,19.75
2023-01-01T18:57:02.073Z,19.77
2023-01-01T18:59:29.215Z,19.62
2023-01-01T19:01:57.803Z,19.61
2023-01-01T19:04:27.154Z,19.60
2023-01-01T19:06:54.809Z,19.51
2023-01-01T19:09:23.723Z,19.49
2023-01-01T19:11:53.154Z,19.46
2023-01-01T19:14:22.812Z,19.44
2023-01-01T19:16:52.039Z,19.27
2023-01-01T19:19:21.740Z,19.26
2023-01-01T19:21:54.118Z,19.25
2023-01-01T19:24:24.250Z,19.25
2023-01-01T19:26:56.193Z,19.20
2023-01-01T19:29:25.106Z,18.99
2023-01-01T19:31:54.911Z,19.05
2023-01-01T19:34:23.847Z,19.14
2023-01-01T19:36:52.662Z,19.14
2023-01-01T19:39:20.038Z,19.14
2023-01-01T19:41:47.235Z,19.14
2023-01-01T19:44:18.487Z,19.15
2023-01-01T19:46:48.653Z,18.95
2023-01-01T19:49:15.800Z,19.11
2023-01-01T19:51:42.899Z,18.95
2023-01-01T19:54:11.409Z,19.08
2023-01-01T19:56:38.580Z,19.02
2023-01-01T19:59:05.753Z,19.16
2023-01-01T20:01:32.965Z,19.24
2023-01-01T20:04:00.720Z,19.30
2023-01-01T20:06:28.874Z,19.31
2023-01-01T20:08:56.336Z,19.34
2023-01-01T20:11:25.054Z,19.39
2023-01-01T20:13:52.201Z,19.66
2023-01-01T20:16:19.396Z,19.89
2023-01-01T20:18:46.616Z,20.44
2023-01-01T20:21:13.743Z,20.41
2023-01-01T20:23:41.238Z,20.57
2023-01-01T20:26:08.732Z,20.56
2023-01-01T20:28:37.375Z,21.25
2023-01-01T20:31:04.655Z,22.17
2023-01-01T20:33:31.976Z,22.08
2023-01-01T20:35:59.056Z,22.51
2023-01-01T20:38:26.258Z,22.80
2023-01-01T20:40:53.494Z,23.15
2023-01-01T20:43:20.635Z,23.34
2023-01-01T20:45:49.276Z,23.57
2023-01-01T20:48:19.846Z,22.90
2023-01-01T20:50:47.216Z,22.21
2023-01-01T20:53:14.357Z,21.75
2023-01-01T20:55:41.515Z,21.31
2023-01-01T20:58:08.736Z,20.96
2023-01-01T21:00:35.960Z,20.68
2023-01-01T21:03:04.675Z,20.48
2023-01-01T21:05:32.037Z,20.35
2023-01-01T21:07:59.195Z,20.27
2023-01-01T21:10:26.275Z,20.17
2023-01-01T21:12:53.922Z,20.09
2023-01-01T21:15:21.297Z,19.92
2023-01-01T21:17:48.586Z,19.68
2023-01-01T21:20:17.356Z,19.48
2023-01-01T21:22:46.495Z,19.30
2023-01-01T21:25:50.443Z,19.17
2023-01-01T21:28:13.415Z,19.08
2023-01-01T21:30:48.775Z,18.98
2023-01-01T21:33:26.114Z,18.82
2023-01-01T21:35:55.509Z,18.76
2023-01-01T21:38:25.559Z,18.63
2023-01-01T21:40:54.491Z,18.66
2023-01-01T21:43:39.742Z,18.66
2023-01-01T21:46:39.397Z,18.73
2023-01-01T21:49:18.978Z,18.75
2023-01-01T21:51:52.877Z,18.57
2023-01-01T21:54:25.637Z,18.46
2023-01-01T21:56:56.975Z,18.61
2023-01-01T21:59:33.868Z,18.55
2023-01-01T22:02:32.387Z,18.51
2023-01-01T22:05:03.178Z,18.44
2023-01-01T22:10:25.480Z,18.43
2023-01-01T22:12:57.256Z,18.46
2023-01-01T22:15:38.312Z,18.42
2023-01-01T22:18:35.854Z,18.49
2023-01-01T22:21:03.054Z,18.50
2023-01-01T22:23:37.614Z,18.56
2023-01-01T22:26:17.104Z,18.61
2023-01-01T22:28:46.637Z,18.63
2023-01-01T22:31:19.458Z,18.70
2023-01-01T22:33:48.689Z,18.79
2023-01-01T22:36:21.232Z,18.88
2023-01-01T22:38:52.962Z,18.95
2023-01-01T22:41:20.109Z,18.97
2023-01-01T22:43:49.661Z,18.86
2023-01-01T22:46:27.109Z,18.95
2023-01-01T22:49:00.129Z,18.90
2023-01-01T22:51:38.489Z,18.85
2023-01-01T22:54:07.036Z,18.90
2023-01-01T22:56:34.340Z,18.96
2023-01-01T22:59:01.794Z,19.09
2023-01-01T23:01:29.107Z,19.10
2023-01-01T23:03:56.405Z,19.12
2023-01-01T23:06:24.172Z,19.17
2023-01-01T23:08:53.422Z,19.29
2023-01-01T23:11:23.135Z,19.25
2023-01-01T23:13:51.557Z,19.27
2023-01-01T23:16:18.847Z,19.28
2023-01-01T23:18:46.521Z,19.24
2023-01-01T23:21:24.141Z,19.24
2023-01-01T23:23:56.622Z,19.22
2023-01-01T23:26:26.293Z,19.18
2023-01-01T23:28:55.221Z,19.24
2023-01-01T23:31:26.071Z,19.30
2023-01-01T23:33:55.082Z,19.31
2023-01-01T23:36:23.335Z,19.24
2023-01-01T23:38:50.494Z,19.28
2023-01-01T23:41:17.882Z,19.33
2023-01-01T23:43:46.475Z,19.38
2023-01-01T23:46:14.990Z,19.41
2023-01-01T23:48:44.096Z,19.43
2023-01-01T23:51:13.308Z,19.40
2023-01-01T23:53:40.539Z,19.37
2023-01-01T23:56:08.255Z,19.33
2023-01-01T23:58:35.496Z,19.33
